首页
METAR-TAF:

METAR-TAF

机场 :

锡诺普, 土耳其

纬度: 42-00-57N, 经度: 035-03-59E, 海拔: 7米

当前天气观测

该预报发布于19分钟前的10:50 UTC
风速11节,风向西转西北
温度 29°C
湿度 40%
气压 1014 hPa
能见度10公里或以上
1500米以下无云,无积雨云

METAR: LTCM 271050Z 29011KT CAVOK 29/14 Q1014

时间: 14:09 (11:09 UTC)

预报

该预报发布于3小时和29分钟前的07:40 UTC
预报有效从27日的 09点(UTC)到 27日的 18点(UTC)
风速12节,风向西转西北
能见度10公里或以上
少量云层高于2700英尺
多云层高于20000英尺

TAF: LTCM 270740Z 2709/2718 30012KT 9999 FEW027 BKN200

超过4000个机场的气象观测和天气预报(METAR&TAF报告)。

可查询的气象台以黄色和红色小点在地图上表示。

将鼠标移到小点上方,可查看气象台名称。

然后点击查看天气观测和预报。

如需切换地图:点击带黑十字的绿色按钮放大地图;点击带横线的绿色按钮缩小地图;或者点击绿色箭头查看邻近地区的地图。


METAR-TAF: